sensor_id;sensor_type;location;lat;lon;timestamp;P1;durP1;ratioP1;P2;durP2;ratioP2
12814;SDS011;6472;52.328;13.070;2023-09-08T00:00:13;12.30;;;8.25;;
12814;SDS011;6472;52.328;13.070;2023-09-08T00:02:42;9.27;;;8.18;;
12814;SDS011;6472;52.328;13.070;2023-09-08T00:05:10;9.30;;;8.15;;
12814;SDS011;6472;52.328;13.070;2023-09-08T00:07:38;9.95;;;8.80;;
12814;SDS011;6472;52.328;13.070;2023-09-08T00:10:06;10.13;;;8.77;;
12814;SDS011;6472;52.328;13.070;2023-09-08T00:12:36;8.95;;;8.00;;
12814;SDS011;6472;52.328;13.070;2023-09-08T00:15:05;8.73;;;7.88;;
12814;SDS011;6472;52.328;13.070;2023-09-08T00:17:34;13.65;;;8.60;;
12814;SDS011;6472;52.328;13.070;2023-09-08T00:20:03;9.32;;;8.38;;
12814;SDS011;6472;52.328;13.070;2023-09-08T00:22:35;9.85;;;7.80;;
12814;SDS011;6472;52.328;13.070;2023-09-08T00:25:03;8.77;;;7.50;;
12814;SDS011;6472;52.328;13.070;2023-09-08T00:27:32;9.52;;;8.32;;
12814;SDS011;6472;52.328;13.070;2023-09-08T00:30:01;8.25;;;7.25;;
12814;SDS011;6472;52.328;13.070;2023-09-08T00:32:30;8.10;;;7.25;;
12814;SDS011;6472;52.328;13.070;2023-09-08T00:34:58;10.75;;;8.18;;
12814;SDS011;6472;52.328;13.070;2023-09-08T00:37:26;9.60;;;7.60;;
12814;SDS011;6472;52.328;13.070;2023-09-08T00:39:54;8.65;;;7.75;;
12814;SDS011;6472;52.328;13.070;2023-09-08T00:42:22;9.77;;;8.67;;
12814;SDS011;6472;52.328;13.070;2023-09-08T00:44:50;10.23;;;8.10;;
12814;SDS011;6472;52.328;13.070;2023-09-08T00:47:20;9.33;;;8.33;;
12814;SDS011;6472;52.328;13.070;2023-09-08T00:49:48;9.97;;;8.97;;
12814;SDS011;6472;52.328;13.070;2023-09-08T00:52:17;9.40;;;8.30;;
12814;SDS011;6472;52.328;13.070;2023-09-08T00:54:46;10.27;;;8.88;;
12814;SDS011;6472;52.328;13.070;2023-09-08T00:57:14;12.50;;;8.83;;
12814;SDS011;6472;52.328;13.070;2023-09-08T00:59:42;9.77;;;8.67;;
12814;SDS011;6472;52.328;13.070;2023-09-08T01:02:11;10.00;;;8.13;;
12814;SDS011;6472;52.328;13.070;2023-09-08T01:04:41;9.80;;;8.30;;
12814;SDS011;6472;52.328;13.070;2023-09-08T01:07:09;11.20;;;8.43;;
12814;SDS011;6472;52.328;13.070;2023-09-08T01:09:38;10.87;;;9.20;;
12814;SDS011;6472;52.328;13.070;2023-09-08T01:12:07;10.00;;;8.33;;
12814;SDS011;6472;52.328;13.070;2023-09-08T01:14:35;12.20;;;8.63;;
12814;SDS011;6472;52.328;13.070;2023-09-08T01:17:03;9.47;;;8.47;;
12814;SDS011;6472;52.328;13.070;2023-09-08T01:19:31;9.03;;;8.13;;
12814;SDS011;6472;52.328;13.070;2023-09-08T01:22:11;9.70;;;8.63;;
12814;SDS011;6472;52.328;13.070;2023-09-08T01:27:32;9.30;;;8.40;;
12814;SDS011;6472;52.328;13.070;2023-09-08T01:30:02;9.33;;;8.10;;
12814;SDS011;6472;52.328;13.070;2023-09-08T01:32:31;12.20;;;9.43;;
12814;SDS011;6472;52.328;13.070;2023-09-08T01:35:00;10.37;;;8.53;;
12814;SDS011;6472;52.328;13.070;2023-09-08T01:37:28;9.90;;;8.27;;
12814;SDS011;6472;52.328;13.070;2023-09-08T01:39:56;10.20;;;9.20;;
12814;SDS011;6472;52.328;13.070;2023-09-08T01:42:25;9.37;;;8.33;;
12814;SDS011;6472;52.328;13.070;2023-09-08T01:44:53;11.27;;;9.23;;
12814;SDS011;6472;52.328;13.070;2023-09-08T01:47:21;12.20;;;9.20;;
12814;SDS011;6472;52.328;13.070;2023-09-08T01:49:49;9.83;;;8.77;;
12814;SDS011;6472;52.328;13.070;2023-09-08T01:52:17;10.77;;;9.23;;
12814;SDS011;6472;52.328;13.070;2023-09-08T01:54:45;10.57;;;8.73;;
12814;SDS011;6472;52.328;13.070;2023-09-08T01:57:13;9.73;;;8.60;;
12814;SDS011;6472;52.328;13.070;2023-09-08T01:59:42;10.00;;;8.50;;
12814;SDS011;6472;52.328;13.070;2023-09-08T02:02:11;11.27;;;9.63;;
12814;SDS011;6472;52.328;13.070;2023-09-08T02:04:39;11.30;;;8.93;;
12814;SDS011;6472;52.328;13.070;2023-09-08T02:07:07;10.43;;;8.53;;
12814;SDS011;6472;52.328;13.070;2023-09-08T02:09:36;11.00;;;9.53;;
12814;SDS011;6472;52.328;13.070;2023-09-08T02:12:05;11.40;;;10.03;;
12814;SDS011;6472;52.328;13.070;2023-09-08T02:14:33;10.27;;;8.70;;
12814;SDS011;6472;52.328;13.070;2023-09-08T02:17:03;10.77;;;9.33;;
12814;SDS011;6472;52.328;13.070;2023-09-08T02:19:32;14.60;;;9.87;;
12814;SDS011;6472;52.328;13.070;2023-09-08T02:22:00;11.90;;;9.10;;
12814;SDS011;6472;52.328;13.070;2023-09-08T02:24:28;10.97;;;9.80;;
12814;SDS011;6472;52.328;13.070;2023-09-08T02:26:56;11.93;;;9.97;;
12814;SDS011;6472;52.328;13.070;2023-09-08T02:29:24;12.23;;;9.70;;
12814;SDS011;6472;52.328;13.070;2023-09-08T02:31:52;10.07;;;8.90;;
12814;SDS011;6472;52.328;13.070;2023-09-08T02:34:21;11.47;;;9.10;;
12814;SDS011;6472;52.328;13.070;2023-09-08T02:36:49;10.47;;;9.37;;
12814;SDS011;6472;52.328;13.070;2023-09-08T02:39:17;10.77;;;9.33;;
12814;SDS011;6472;52.328;13.070;2023-09-08T02:41:46;10.77;;;9.70;;
12814;SDS011;6472;52.328;13.070;2023-09-08T02:44:14;11.03;;;9.20;;
12814;SDS011;6472;52.328;13.070;2023-09-08T02:46:42;12.30;;;9.57;;
12814;SDS011;6472;52.328;13.070;2023-09-08T02:49:10;10.47;;;9.40;;
12814;SDS011;6472;52.328;13.070;2023-09-08T02:51:40;11.60;;;10.40;;
12814;SDS011;6472;52.328;13.070;2023-09-08T02:54:08;13.50;;;10.47;;
12814;SDS011;6472;52.328;13.070;2023-09-08T02:56:36;11.23;;;9.73;;
12814;SDS011;6472;52.328;13.070;2023-09-08T02:59:04;11.83;;;10.30;;
12814;SDS011;6472;52.328;13.070;2023-09-08T03:01:32;13.17;;;10.53;;
12814;SDS011;6472;52.328;13.070;2023-09-08T03:04:00;10.70;;;9.63;;
12814;SDS011;6472;52.328;13.070;2023-09-08T03:06:28;11.80;;;9.77;;
12814;SDS011;6472;52.328;13.070;2023-09-08T03:08:59;12.37;;;10.60;;
12814;SDS011;6472;52.328;13.070;2023-09-08T03:11:27;11.10;;;9.87;;
12814;SDS011;6472;52.328;13.070;2023-09-08T03:13:55;11.77;;;9.87;;
12814;SDS011;6472;52.328;13.070;2023-09-08T03:16:23;13.73;;;10.83;;
12814;SDS011;6472;52.328;13.070;2023-09-08T03:18:52;11.00;;;9.90;;
12814;SDS011;6472;52.328;13.070;2023-09-08T03:21:20;11.57;;;9.73;;
12814;SDS011;6472;52.328;13.070;2023-09-08T03:23:48;11.07;;;9.90;;
12814;SDS011;6472;52.328;13.070;2023-09-08T03:26:17;11.70;;;10.27;;
12814;SDS011;6472;52.328;13.070;2023-09-08T03:28:45;11.60;;;9.90;;
12814;SDS011;6472;52.328;13.070;2023-09-08T03:31:13;12.00;;;10.20;;
12814;SDS011;6472;52.328;13.070;2023-09-08T03:33:41;12.33;;;9.37;;
12814;SDS011;6472;52.328;13.070;2023-09-08T03:36:09;13.03;;;10.70;;
12814;SDS011;6472;52.328;13.070;2023-09-08T03:38:37;11.07;;;9.80;;
12814;SDS011;6472;52.328;13.070;2023-09-08T03:41:07;12.13;;;10.47;;
12814;SDS011;6472;52.328;13.070;2023-09-08T03:43:36;11.77;;;10.57;;
12814;SDS011;6472;52.328;13.070;2023-09-08T03:46:05;12.07;;;10.10;;
12814;SDS011;6472;52.328;13.070;2023-09-08T03:48:33;11.77;;;10.57;;
12814;SDS011;6472;52.328;13.070;2023-09-08T03:51:01;13.20;;;10.60;;
12814;SDS011;6472;52.328;13.070;2023-09-08T03:53:29;13.40;;;11.27;;
12814;SDS011;6472;52.328;13.070;2023-09-08T03:55:58;11.47;;;10.27;;
12814;SDS011;6472;52.328;13.070;2023-09-08T03:58:26;13.37;;;9.67;;
12814;SDS011;6472;52.328;13.070;2023-09-08T04:00:56;13.30;;;11.40;;
12814;SDS011;6472;52.328;13.070;2023-09-08T04:03:24;11.50;;;10.30;;
12814;SDS011;6472;52.328;13.070;2023-09-08T04:05:53;11.13;;;9.90;;
12814;SDS011;6472;52.328;13.070;2023-09-08T04:08:21;13.20;;;11.17;;
12814;SDS011;6472;52.328;13.070;2023-09-08T04:10:49;12.80;;;11.00;;
12814;SDS011;6472;52.328;13.070;2023-09-08T04:13:17;12.33;;;11.03;;
12814;SDS011;6472;52.328;13.070;2023-09-08T04:15:45;12.27;;;10.93;;
12814;SDS011;6472;52.328;13.070;2023-09-08T04:18:15;11.67;;;10.47;;
12814;SDS011;6472;52.328;13.070;2023-09-08T04:20:43;12.80;;;10.73;;
12814;SDS011;6472;52.328;13.070;2023-09-08T04:23:11;13.33;;;11.27;;
12814;SDS011;6472;52.328;13.070;2023-09-08T04:25:39;13.90;;;11.10;;
12814;SDS011;6472;52.328;13.070;2023-09-08T04:28:07;12.47;;;11.27;;
12814;SDS011;6472;52.328;13.070;2023-09-08T04:30:35;12.50;;;10.60;;
12814;SDS011;6472;52.328;13.070;2023-09-08T04:33:03;12.63;;;11.27;;
12814;SDS011;6472;52.328;13.070;2023-09-08T04:35:33;13.87;;;11.30;;
12814;SDS011;6472;52.328;13.070;2023-09-08T04:38:01;13.50;;;12.13;;
12814;SDS011;6472;52.328;13.070;2023-09-08T04:40:30;14.20;;;11.13;;
12814;SDS011;6472;52.328;13.070;2023-09-08T04:42:58;12.60;;;11.30;;
12814;SDS011;6472;52.328;13.070;2023-09-08T04:45:27;16.30;;;12.27;;
12814;SDS011;6472;52.328;13.070;2023-09-08T04:47:55;15.93;;;12.00;;
12814;SDS011;6472;52.328;13.070;2023-09-08T04:50:23;14.40;;;11.67;;
12814;SDS011;6472;52.328;13.070;2023-09-08T04:52:52;15.67;;;11.77;;
12814;SDS011;6472;52.328;13.070;2023-09-08T04:55:20;14.90;;;11.67;;
12814;SDS011;6472;52.328;13.070;2023-09-08T04:57:48;12.17;;;10.97;;
12814;SDS011;6472;52.328;13.070;2023-09-08T05:00:16;13.50;;;11.17;;
12814;SDS011;6472;52.328;13.070;2023-09-08T05:02:45;14.23;;;12.17;;
12814;SDS011;6472;52.328;13.070;2023-09-08T05:05:13;15.00;;;12.77;;
12814;SDS011;6472;52.328;13.070;2023-09-08T05:07:41;12.83;;;10.50;;
12814;SDS011;6472;52.328;13.070;2023-09-08T05:10:10;15.90;;;12.13;;
12814;SDS011;6472;52.328;13.070;2023-09-08T05:12:38;18.03;;;12.27;;
12814;SDS011;6472;52.328;13.070;2023-09-08T05:15:07;15.33;;;12.20;;
12814;SDS011;6472;52.328;13.070;2023-09-08T05:17:41;14.93;;;11.57;;
12814;SDS011;6472;52.328;13.070;2023-09-08T05:20:09;14.03;;;11.70;;
12814;SDS011;6472;52.328;13.070;2023-09-08T05:22:38;13.97;;;11.80;;
12814;SDS011;6472;52.328;13.070;2023-09-08T05:25:06;15.73;;;12.53;;
12814;SDS011;6472;52.328;13.070;2023-09-08T05:27:35;14.37;;;12.17;;
12814;SDS011;6472;52.328;13.070;2023-09-08T05:30:04;17.93;;;13.63;;
12814;SDS011;6472;52.328;13.070;2023-09-08T05:32:33;15.80;;;12.67;;
12814;SDS011;6472;52.328;13.070;2023-09-08T05:35:01;16.53;;;13.57;;
12814;SDS011;6472;52.328;13.070;2023-09-08T05:37:29;15.00;;;13.50;;
12814;SDS011;6472;52.328;13.070;2023-09-08T05:39:57;17.10;;;12.50;;
12814;SDS011;6472;52.328;13.070;2023-09-08T05:42:25;16.00;;;13.00;;
12814;SDS011;6472;52.328;13.070;2023-09-08T05:44:55;15.30;;;13.70;;
12814;SDS011;6472;52.328;13.070;2023-09-08T05:47:22;15.40;;;12.90;;
12814;SDS011;6472;52.328;13.070;2023-09-08T05:49:50;16.23;;;13.30;;
12814;SDS011;6472;52.328;13.070;2023-09-08T05:52:21;15.53;;;12.30;;
12814;SDS011;6472;52.328;13.070;2023-09-08T05:54:49;13.30;;;12.00;;
12814;SDS011;6472;52.328;13.070;2023-09-08T05:57:17;16.80;;;12.00;;
12814;SDS011;6472;52.328;13.070;2023-09-08T05:59:45;17.00;;;13.17;;
12814;SDS011;6472;52.328;13.070;2023-09-08T06:02:14;14.17;;;11.43;;
12814;SDS011;6472;52.328;13.070;2023-09-08T06:04:42;14.37;;;12.50;;
12814;SDS011;6472;52.328;13.070;2023-09-08T06:07:10;16.93;;;12.50;;
12814;SDS011;6472;52.328;13.070;2023-09-08T06:09:38;16.63;;;12.53;;
12814;SDS011;6472;52.328;13.070;2023-09-08T06:12:06;13.33;;;12.03;;
12814;SDS011;6472;52.328;13.070;2023-09-08T06:14:34;13.97;;;12.43;;
12814;SDS011;6472;52.328;13.070;2023-09-08T06:17:02;13.50;;;12.07;;
12814;SDS011;6472;52.328;13.070;2023-09-08T06:19:32;15.60;;;12.03;;
12814;SDS011;6472;52.328;13.070;2023-09-08T06:22:00;13.43;;;11.88;;
12814;SDS011;6472;52.328;13.070;2023-09-08T06:24:28;13.85;;;12.35;;
12814;SDS011;6472;52.328;13.070;2023-09-08T06:26:56;14.10;;;11.93;;
12814;SDS011;6472;52.328;13.070;2023-09-08T06:29:24;14.50;;;11.73;;
12814;SDS011;6472;52.328;13.070;2023-09-08T06:31:52;19.38;;;11.85;;
12814;SDS011;6472;52.328;13.070;2023-09-08T06:34:20;12.93;;;11.38;;
12814;SDS011;6472;52.328;13.070;2023-09-08T06:36:51;10.95;;;9.35;;
12814;SDS011;6472;52.328;13.070;2023-09-08T06:39:20;11.75;;;10.55;;
12814;SDS011;6472;52.328;13.070;2023-09-08T06:41:49;12.57;;;11.02;;
12814;SDS011;6472;52.328;13.070;2023-09-08T06:44:17;12.40;;;11.02;;
12814;SDS011;6472;52.328;13.070;2023-09-08T06:46:46;11.63;;;9.57;;
12814;SDS011;6472;52.328;13.070;2023-09-08T06:49:14;11.20;;;9.75;;
12814;SDS011;6472;52.328;13.070;2023-09-08T06:51:42;11.57;;;9.80;;
12814;SDS011;6472;52.328;13.070;2023-09-08T06:54:12;11.43;;;10.23;;
12814;SDS011;6472;52.328;13.070;2023-09-08T06:56:40;12.63;;;9.55;;
12814;SDS011;6472;52.328;13.070;2023-09-08T06:59:08;13.27;;;9.52;;
12814;SDS011;6472;52.328;13.070;2023-09-08T07:01:36;11.20;;;9.10;;
12814;SDS011;6472;52.328;13.070;2023-09-08T07:04:04;11.85;;;10.00;;
12814;SDS011;6472;52.328;13.070;2023-09-08T07:06:33;13.23;;;9.18;;
12814;SDS011;6472;52.328;13.070;2023-09-08T07:09:02;10.88;;;9.77;;
12814;SDS011;6472;52.328;13.070;2023-09-08T07:11:31;9.23;;;8.32;;
12814;SDS011;6472;52.328;13.070;2023-09-08T07:13:59;10.45;;;9.10;;
12814;SDS011;6472;52.328;13.070;2023-09-08T07:16:27;10.43;;;9.35;;
12814;SDS011;6472;52.328;13.070;2023-09-08T07:18:55;13.80;;;9.45;;
12814;SDS011;6472;52.328;13.070;2023-09-08T07:21:23;9.75;;;8.75;;
12814;SDS011;6472;52.328;13.070;2023-09-08T07:23:51;9.80;;;8.45;;
12814;SDS011;6472;52.328;13.070;2023-09-08T07:26:20;10.60;;;9.50;;
12814;SDS011;6472;52.328;13.070;2023-09-08T07:28:49;9.77;;;8.32;;
12814;SDS011;6472;52.328;13.070;2023-09-08T07:31:17;9.10;;;8.20;;
12814;SDS011;6472;52.328;13.070;2023-09-08T07:33:45;9.48;;;8.35;;
12814;SDS011;6472;52.328;13.070;2023-09-08T07:36:13;14.02;;;8.15;;
12814;SDS011;6472;52.328;13.070;2023-09-08T07:38:42;9.43;;;8.02;;
12814;SDS011;6472;52.328;13.070;2023-09-08T07:41:10;11.00;;;8.13;;
12814;SDS011;6472;52.328;13.070;2023-09-08T07:43:38;9.65;;;8.02;;
12814;SDS011;6472;52.328;13.070;2023-09-08T07:46:09;9.02;;;7.90;;
12814;SDS011;6472;52.328;13.070;2023-09-08T07:48:37;9.15;;;7.95;;
12814;SDS011;6472;52.328;13.070;2023-09-08T07:51:05;8.48;;;7.57;;
12814;SDS011;6472;52.328;13.070;2023-09-08T07:53:33;9.70;;;7.75;;
12814;SDS011;6472;52.328;13.070;2023-09-08T07:56:01;11.45;;;8.23;;
12814;SDS011;6472;52.328;13.070;2023-09-08T07:58:30;8.88;;;7.97;;
12814;SDS011;6472;52.328;13.070;2023-09-08T08:01:00;9.00;;;8.10;;
12814;SDS011;6472;52.328;13.070;2023-09-08T08:03:29;10.60;;;7.72;;
12814;SDS011;6472;52.328;13.070;2023-09-08T08:05:57;8.88;;;7.55;;
12814;SDS011;6472;52.328;13.070;2023-09-08T08:08:25;9.38;;;8.40;;
12814;SDS011;6472;52.328;13.070;2023-09-08T08:10:53;9.27;;;7.47;;
12814;SDS011;6472;52.328;13.070;2023-09-08T08:13:21;10.57;;;7.55;;
12814;SDS011;6472;52.328;13.070;2023-09-08T08:15:49;9.65;;;7.82;;
12814;SDS011;6472;52.328;13.070;2023-09-08T08:18:18;8.00;;;7.22;;
12814;SDS011;6472;52.328;13.070;2023-09-08T08:20:47;9.93;;;7.40;;
12814;SDS011;6472;52.328;13.070;2023-09-08T08:23:15;8.05;;;7.25;;
12814;SDS011;6472;52.328;13.070;2023-09-08T08:25:43;11.85;;;8.70;;
12814;SDS011;6472;52.328;13.070;2023-09-08T08:28:11;10.45;;;7.82;;
12814;SDS011;6472;52.328;13.070;2023-09-08T08:30:40;9.30;;;8.13;;
12814;SDS011;6472;52.328;13.070;2023-09-08T08:33:08;8.27;;;7.47;;
12814;SDS011;6472;52.328;13.070;2023-09-08T08:35:37;11.20;;;8.55;;
12814;SDS011;6472;52.328;13.070;2023-09-08T08:38:06;8.00;;;7.30;;
12814;SDS011;6472;52.328;13.070;2023-09-08T08:40:37;8.70;;;7.80;;
12814;SDS011;6472;52.328;13.070;2023-09-08T08:43:06;10.48;;;8.77;;
12814;SDS011;6472;52.328;13.070;2023-09-08T08:45:35;10.18;;;8.25;;
12814;SDS011;6472;52.328;13.070;2023-09-08T08:48:05;8.85;;;8.00;;
12814;SDS011;6472;52.328;13.070;2023-09-08T08:50:35;9.18;;;7.90;;
12814;SDS011;6472;52.328;13.070;2023-09-08T08:53:04;10.48;;;7.78;;
12814;SDS011;6472;52.328;13.070;2023-09-08T08:55:35;9.00;;;8.20;;
12814;SDS011;6472;52.328;13.070;2023-09-08T08:58:04;10.10;;;8.10;;
12814;SDS011;6472;52.328;13.070;2023-09-08T09:00:33;12.10;;;8.52;;
12814;SDS011;6472;52.328;13.070;2023-09-08T09:03:04;9.13;;;8.27;;
12814;SDS011;6472;52.328;13.070;2023-09-08T09:05:40;9.27;;;8.20;;
12814;SDS011;6472;52.328;13.070;2023-09-08T09:08:14;9.00;;;7.95;;
12814;SDS011;6472;52.328;13.070;2023-09-08T09:10:45;10.32;;;8.50;;
12814;SDS011;6472;52.328;13.070;2023-09-08T09:13:13;11.02;;;8.50;;
12814;SDS011;6472;52.328;13.070;2023-09-08T09:15:41;9.15;;;8.13;;
12814;SDS011;6472;52.328;13.070;2023-09-08T09:18:11;10.52;;;8.65;;
12814;SDS011;6472;52.328;13.070;2023-09-08T09:20:40;9.20;;;7.82;;
12814;SDS011;6472;52.328;13.070;2023-09-08T09:23:27;9.52;;;8.57;;
12814;SDS011;6472;52.328;13.070;2023-09-08T09:25:56;8.45;;;7.57;;
12814;SDS011;6472;52.328;13.070;2023-09-08T09:28:25;7.85;;;6.72;;
12814;SDS011;6472;52.328;13.070;2023-09-08T09:30:56;7.72;;;7.00;;
12814;SDS011;6472;52.328;13.070;2023-09-08T09:33:25;7.63;;;6.80;;
12814;SDS011;6472;52.328;13.070;2023-09-08T09:35:56;9.20;;;7.97;;
12814;SDS011;6472;52.328;13.070;2023-09-08T09:38:26;6.82;;;6.15;;
12814;SDS011;6472;52.328;13.070;2023-09-08T09:40:56;9.85;;;7.22;;
12814;SDS011;6472;52.328;13.070;2023-09-08T09:43:24;9.70;;;8.70;;
12814;SDS011;6472;52.328;13.070;2023-09-08T09:45:55;9.85;;;8.07;;
12814;SDS011;6472;52.328;13.070;2023-09-08T09:48:23;9.68;;;7.80;;
12814;SDS011;6472;52.328;13.070;2023-09-08T09:50:52;8.75;;;7.68;;
12814;SDS011;6472;52.328;13.070;2023-09-08T09:53:20;7.88;;;7.18;;
12814;SDS011;6472;52.328;13.070;2023-09-08T09:55:49;8.85;;;8.02;;
12814;SDS011;6472;52.328;13.070;2023-09-08T09:58:18;8.23;;;7.45;;
12814;SDS011;6472;52.328;13.070;2023-09-08T10:00:48;10.10;;;8.00;;
12814;SDS011;6472;52.328;13.070;2023-09-08T10:03:18;8.35;;;7.50;;
12814;SDS011;6472;52.328;13.070;2023-09-08T10:05:47;9.60;;;8.73;;
12814;SDS011;6472;52.328;13.070;2023-09-08T10:08:16;8.38;;;7.53;;
12814;SDS011;6472;52.328;13.070;2023-09-08T10:10:44;12.05;;;6.93;;
12814;SDS011;6472;52.328;13.070;2023-09-08T10:13:16;9.65;;;6.90;;
12814;SDS011;6472;52.328;13.070;2023-09-08T10:15:50;6.47;;;5.90;;
12814;SDS011;6472;52.328;13.070;2023-09-08T10:18:19;7.75;;;6.95;;
12814;SDS011;6472;52.328;13.070;2023-09-08T10:20:48;7.78;;;7.05;;
12814;SDS011;6472;52.328;13.070;2023-09-08T10:23:21;7.75;;;6.93;;
12814;SDS011;6472;52.328;13.070;2023-09-08T10:25:52;7.35;;;6.60;;
12814;SDS011;6472;52.328;13.070;2023-09-08T10:28:28;7.38;;;6.78;;
12814;SDS011;6472;52.328;13.070;2023-09-08T10:30:57;6.57;;;5.97;;
12814;SDS011;6472;52.328;13.070;2023-09-08T10:33:26;7.05;;;6.35;;
12814;SDS011;6472;52.328;13.070;2023-09-08T10:35:54;7.60;;;6.90;;
12814;SDS011;6472;52.328;13.070;2023-09-08T10:38:24;7.88;;;6.28;;
12814;SDS011;6472;52.328;13.070;2023-09-08T10:40:54;6.25;;;5.57;;
12814;SDS011;6472;52.328;13.070;2023-09-08T10:44:00;6.85;;;6.00;;
12814;SDS011;6472;52.328;13.070;2023-09-08T10:46:31;7.10;;;5.78;;
12814;SDS011;6472;52.328;13.070;2023-09-08T10:49:02;7.22;;;5.95;;
12814;SDS011;6472;52.328;13.070;2023-09-08T10:51:55;6.50;;;5.22;;
12814;SDS011;6472;52.328;13.070;2023-09-08T10:55:02;5.88;;;5.38;;
12814;SDS011;6472;52.328;13.070;2023-09-08T10:57:33;8.02;;;5.80;;
12814;SDS011;6472;52.328;13.070;2023-09-08T11:00:03;7.57;;;5.95;;
12814;SDS011;6472;52.328;13.070;2023-09-08T11:02:39;6.20;;;5.50;;
12814;SDS011;6472;52.328;13.070;2023-09-08T11:05:09;5.82;;;5.35;;
12814;SDS011;6472;52.328;13.070;2023-09-08T11:07:40;6.82;;;5.90;;
12814;SDS011;6472;52.328;13.070;2023-09-08T11:10:10;6.32;;;5.72;;
12814;SDS011;6472;52.328;13.070;2023-09-08T11:12:39;6.18;;;5.55;;
12814;SDS011;6472;52.328;13.070;2023-09-08T11:15:10;6.15;;;5.55;;
12814;SDS011;6472;52.328;13.070;2023-09-08T11:18:06;6.05;;;5.00;;
12814;SDS011;6472;52.328;13.070;2023-09-08T11:20:34;5.80;;;5.13;;
12814;SDS011;6472;52.328;13.070;2023-09-08T11:23:03;5.05;;;4.55;;
12814;SDS011;6472;52.328;13.070;2023-09-08T11:25:32;6.38;;;5.45;;
12814;SDS011;6472;52.328;13.070;2023-09-08T11:28:01;6.15;;;4.95;;
12814;SDS011;6472;52.328;13.070;2023-09-08T11:30:31;5.93;;;4.72;;
12814;SDS011;6472;52.328;13.070;2023-09-08T11:32:59;6.45;;;5.15;;
12814;SDS011;6472;52.328;13.070;2023-09-08T11:35:27;6.97;;;4.97;;
12814;SDS011;6472;52.328;13.070;2023-09-08T11:37:59;6.07;;;5.18;;
12814;SDS011;6472;52.328;13.070;2023-09-08T11:40:31;5.82;;;5.18;;
12814;SDS011;6472;52.328;13.070;2023-09-08T11:43:01;5.63;;;5.13;;
12814;SDS011;6472;52.328;13.070;2023-09-08T11:45:31;5.75;;;5.25;;
12814;SDS011;6472;52.328;13.070;2023-09-08T11:48:02;5.88;;;5.05;;
12814;SDS011;6472;52.328;13.070;2023-09-08T11:50:31;5.72;;;5.13;;
12814;SDS011;6472;52.328;13.070;2023-09-08T11:52:59;6.32;;;5.78;;
12814;SDS011;6472;52.328;13.070;2023-09-08T11:55:28;5.90;;;5.30;;
12814;SDS011;6472;52.328;13.070;2023-09-08T11:57:57;6.55;;;5.72;;
12814;SDS011;6472;52.328;13.070;2023-09-08T12:00:27;5.40;;;4.90;;
12814;SDS011;6472;52.328;13.070;2023-09-08T12:02:58;6.10;;;4.78;;
12814;SDS011;6472;52.328;13.070;2023-09-08T12:05:37;5.45;;;4.53;;
12814;SDS011;6472;52.328;13.070;2023-09-08T12:08:05;6.22;;;5.63;;
12814;SDS011;6472;52.328;13.070;2023-09-08T12:10:40;6.57;;;5.97;;
12814;SDS011;6472;52.328;13.070;2023-09-08T12:13:09;7.68;;;5.60;;
12814;SDS011;6472;52.328;13.070;2023-09-08T12:15:39;6.43;;;5.78;;
12814;SDS011;6472;52.328;13.070;2023-09-08T12:18:12;6.10;;;5.55;;
12814;SDS011;6472;52.328;13.070;2023-09-08T12:20:42;7.72;;;5.25;;
12814;SDS011;6472;52.328;13.070;2023-09-08T12:23:17;6.18;;;5.57;;
12814;SDS011;6472;52.328;13.070;2023-09-08T12:25:46;6.28;;;5.70;;
12814;SDS011;6472;52.328;13.070;2023-09-08T12:28:16;6.20;;;5.60;;
12814;SDS011;6472;52.328;13.070;2023-09-08T12:30:45;5.90;;;5.40;;
12814;SDS011;6472;52.328;13.070;2023-09-08T12:33:15;5.30;;;4.70;;
12814;SDS011;6472;52.328;13.070;2023-09-08T12:35:46;6.00;;;4.95;;
12814;SDS011;6472;52.328;13.070;2023-09-08T12:38:17;4.93;;;4.45;;
12814;SDS011;6472;52.328;13.070;2023-09-08T12:40:46;5.72;;;5.13;;
12814;SDS011;6472;52.328;13.070;2023-09-08T12:43:14;6.95;;;4.63;;
12814;SDS011;6472;52.328;13.070;2023-09-08T12:45:53;7.68;;;4.78;;
12814;SDS011;6472;52.328;13.070;2023-09-08T12:48:23;5.63;;;5.13;;
12814;SDS011;6472;52.328;13.070;2023-09-08T12:50:51;6.43;;;4.88;;
12814;SDS011;6472;52.328;13.070;2023-09-08T12:53:19;5.55;;;5.05;;
12814;SDS011;6472;52.328;13.070;2023-09-08T12:55:49;4.95;;;4.55;;
12814;SDS011;6472;52.328;13.070;2023-09-08T12:58:17;5.18;;;4.72;;
12814;SDS011;6472;52.328;13.070;2023-09-08T13:00:45;5.55;;;4.68;;
12814;SDS011;6472;52.328;13.070;2023-09-08T13:03:13;5.63;;;4.65;;
12814;SDS011;6472;52.328;13.070;2023-09-08T13:05:43;5.10;;;4.70;;
12814;SDS011;6472;52.328;13.070;2023-09-08T13:08:11;5.90;;;5.30;;
12814;SDS011;6472;52.328;13.070;2023-09-08T13:10:41;5.30;;;4.78;;
12814;SDS011;6472;52.328;13.070;2023-09-08T13:13:09;5.57;;;4.60;;
12814;SDS011;6472;52.328;13.070;2023-09-08T13:15:37;5.63;;;4.82;;
12814;SDS011;6472;52.328;13.070;2023-09-08T13:18:05;5.47;;;4.97;;
12814;SDS011;6472;52.328;13.070;2023-09-08T13:20:34;5.18;;;4.75;;
12814;SDS011;6472;52.328;13.070;2023-09-08T13:23:03;7.97;;;5.05;;
12814;SDS011;6472;52.328;13.070;2023-09-08T13:25:31;4.85;;;4.45;;
12814;SDS011;6472;52.328;13.070;2023-09-08T13:27:59;5.30;;;4.80;;
12814;SDS011;6472;52.328;13.070;2023-09-08T13:30:27;4.85;;;4.35;;
12814;SDS011;6472;52.328;13.070;2023-09-08T13:32:55;5.70;;;4.50;;
12814;SDS011;6472;52.328;13.070;2023-09-08T13:35:23;4.80;;;4.40;;
12814;SDS011;6472;52.328;13.070;2023-09-08T13:37:51;5.22;;;4.20;;
12814;SDS011;6472;52.328;13.070;2023-09-08T13:40:27;6.22;;;4.70;;
12814;SDS011;6472;52.328;13.070;2023-09-08T13:43:10;5.28;;;4.68;;
12814;SDS011;6472;52.328;13.070;2023-09-08T13:45:38;5.03;;;4.43;;
12814;SDS011;6472;52.328;13.070;2023-09-08T13:48:09;5.50;;;5.00;;
12814;SDS011;6472;52.328;13.070;2023-09-08T13:50:37;5.25;;;4.75;;
12814;SDS011;6472;52.328;13.070;2023-09-08T13:53:09;6.43;;;4.80;;
12814;SDS011;6472;52.328;13.070;2023-09-08T13:55:41;4.90;;;4.50;;
12814;SDS011;6472;52.328;13.070;2023-09-08T13:58:10;5.05;;;4.65;;
12814;SDS011;6472;52.328;13.070;2023-09-08T14:00:39;5.57;;;4.35;;
12814;SDS011;6472;52.328;13.070;2023-09-08T14:03:11;5.30;;;4.82;;
12814;SDS011;6472;52.328;13.070;2023-09-08T14:05:43;5.20;;;4.10;;
12814;SDS011;6472;52.328;13.070;2023-09-08T14:08:18;7.47;;;4.10;;
12814;SDS011;6472;52.328;13.070;2023-09-08T14:10:56;5.30;;;4.85;;
12814;SDS011;6472;52.328;13.070;2023-09-08T14:13:27;4.53;;;4.20;;
12814;SDS011;6472;52.328;13.070;2023-09-08T14:15:55;5.05;;;4.30;;
12814;SDS011;6472;52.328;13.070;2023-09-08T14:18:28;5.05;;;4.00;;
12814;SDS011;6472;52.328;13.070;2023-09-08T14:20:56;4.68;;;4.25;;
12814;SDS011;6472;52.328;13.070;2023-09-08T14:23:24;4.90;;;4.50;;
12814;SDS011;6472;52.328;13.070;2023-09-08T14:25:52;6.47;;;4.55;;
12814;SDS011;6472;52.328;13.070;2023-09-08T14:28:22;5.70;;;5.20;;
12814;SDS011;6472;52.328;13.070;2023-09-08T14:30:50;5.63;;;4.53;;
12814;SDS011;6472;52.328;13.070;2023-09-08T14:33:18;5.00;;;4.60;;
12814;SDS011;6472;52.328;13.070;2023-09-08T14:35:46;4.80;;;4.40;;
12814;SDS011;6472;52.328;13.070;2023-09-08T14:38:18;5.53;;;4.45;;
12814;SDS011;6472;52.328;13.070;2023-09-08T14:40:53;4.43;;;4.00;;
12814;SDS011;6472;52.328;13.070;2023-09-08T14:43:23;5.07;;;4.32;;
12814;SDS011;6472;52.328;13.070;2023-09-08T14:45:52;5.05;;;4.65;;
12814;SDS011;6472;52.328;13.070;2023-09-08T14:48:20;6.13;;;4.32;;
12814;SDS011;6472;52.328;13.070;2023-09-08T14:50:48;4.90;;;4.40;;
12814;SDS011;6472;52.328;13.070;2023-09-08T14:53:17;5.13;;;4.70;;